sensor_id;sensor_type;location;lat;lon;timestamp;temperature;humidity
18823;DHT22;9540;51.550;7.980;2023-01-19T00:00:03;0.30;99.90
18823;DHT22;9540;51.550;7.980;2023-01-19T00:02:31;0.30;99.90
18823;DHT22;9540;51.550;7.980;2023-01-19T00:04:58;0.30;99.90
18823;DHT22;9540;51.550;7.980;2023-01-19T00:07:28;0.40;99.90
18823;DHT22;9540;51.550;7.980;2023-01-19T00:09:56;0.30;99.90
18823;DHT22;9540;51.550;7.980;2023-01-19T00:12:25;0.30;99.90
18823;DHT22;9540;51.550;7.980;2023-01-19T00:14:52;0.30;99.90
18823;DHT22;9540;51.550;7.980;2023-01-19T00:17:19;0.40;99.90
18823;DHT22;9540;51.550;7.980;2023-01-19T00:19:46;0.40;99.90
18823;DHT22;9540;51.550;7.980;2023-01-19T00:22:13;0.40;99.90
18823;DHT22;9540;51.550;7.980;2023-01-19T00:24:41;0.50;99.90
18823;DHT22;9540;51.550;7.980;2023-01-19T00:27:09;0.50;99.90
18823;DHT22;9540;51.550;7.980;2023-01-19T00:29:37;0.50;99.90
18823;DHT22;9540;51.550;7.980;2023-01-19T00:32:05;0.50;99.90
18823;DHT22;9540;51.550;7.980;2023-01-19T00:34:32;0.50;99.90
18823;DHT22;9540;51.550;7.980;2023-01-19T00:37:04;0.40;99.90
18823;DHT22;9540;51.550;7.980;2023-01-19T00:39:31;0.50;99.90
18823;DHT22;9540;51.550;7.980;2023-01-19T00:41:59;0.50;99.90
18823;DHT22;9540;51.550;7.980;2023-01-19T00:44:44;0.50;99.90
18823;DHT22;9540;51.550;7.980;2023-01-19T00:47:12;0.50;99.90
18823;DHT22;9540;51.550;7.980;2023-01-19T00:49:39;0.60;99.90
18823;DHT22;9540;51.550;7.980;2023-01-19T00:52:06;0.60;99.90
18823;DHT22;9540;51.550;7.980;2023-01-19T00:54:35;0.50;99.90
18823;DHT22;9540;51.550;7.980;2023-01-19T00:57:03;0.50;99.90
18823;DHT22;9540;51.550;7.980;2023-01-19T00:59:30;0.50;99.90
18823;DHT22;9540;51.550;7.980;2023-01-19T01:01:58;0.60;99.90
18823;DHT22;9540;51.550;7.980;2023-01-19T01:04:25;0.60;99.90
18823;DHT22;9540;51.550;7.980;2023-01-19T01:06:53;0.60;99.90
18823;DHT22;9540;51.550;7.980;2023-01-19T01:09:20;0.60;99.90
18823;DHT22;9540;51.550;7.980;2023-01-19T01:11:47;0.60;99.90
18823;DHT22;9540;51.550;7.980;2023-01-19T01:14:14;0.60;99.90
18823;DHT22;9540;51.550;7.980;2023-01-19T01:16:41;0.70;99.90
18823;DHT22;9540;51.550;7.980;2023-01-19T01:19:10;0.80;99.90
18823;DHT22;9540;51.550;7.980;2023-01-19T01:21:37;0.90;99.90
18823;DHT22;9540;51.550;7.980;2023-01-19T01:24:05;0.90;99.90
18823;DHT22;9540;51.550;7.980;2023-01-19T01:26:32;0.80;99.90
18823;DHT22;9540;51.550;7.980;2023-01-19T01:29:00;0.90;99.90
18823;DHT22;9540;51.550;7.980;2023-01-19T01:31:27;0.80;99.90
18823;DHT22;9540;51.550;7.980;2023-01-19T01:33:55;0.90;99.90
18823;DHT22;9540;51.550;7.980;2023-01-19T01:36:23;0.90;99.90
18823;DHT22;9540;51.550;7.980;2023-01-19T01:38:53;0.80;99.90
18823;DHT22;9540;51.550;7.980;2023-01-19T01:41:20;0.80;99.90
18823;DHT22;9540;51.550;7.980;2023-01-19T01:43:49;0.70;99.90
18823;DHT22;9540;51.550;7.980;2023-01-19T01:46:18;0.70;99.90
18823;DHT22;9540;51.550;7.980;2023-01-19T01:48:49;0.70;99.90
18823;DHT22;9540;51.550;7.980;2023-01-19T01:51:23;0.70;99.90
18823;DHT22;9540;51.550;7.980;2023-01-19T01:54:03;0.60;99.90
18823;DHT22;9540;51.550;7.980;2023-01-19T01:56:35;0.60;99.90
18823;DHT22;9540;51.550;7.980;2023-01-19T01:59:05;0.60;99.90
18823;DHT22;9540;51.550;7.980;2023-01-19T02:01:33;0.60;99.90
18823;DHT22;9540;51.550;7.980;2023-01-19T02:04:19;0.50;99.90
18823;DHT22;9540;51.550;7.980;2023-01-19T02:06:48;0.50;99.90
18823;DHT22;9540;51.550;7.980;2023-01-19T02:09:35;0.40;99.90
18823;DHT22;9540;51.550;7.980;2023-01-19T02:12:21;0.40;99.90
18823;DHT22;9540;51.550;7.980;2023-01-19T02:15:13;0.50;99.90
18823;DHT22;9540;51.550;7.980;2023-01-19T02:17:41;0.50;99.90
18823;DHT22;9540;51.550;7.980;2023-01-19T02:20:09;0.60;99.90
18823;DHT22;9540;51.550;7.980;2023-01-19T02:22:44;0.70;99.90
18823;DHT22;9540;51.550;7.980;2023-01-19T02:25:14;0.80;99.90
18823;DHT22;9540;51.550;7.980;2023-01-19T02:27:41;0.80;99.90
18823;DHT22;9540;51.550;7.980;2023-01-19T02:30:10;0.80;99.90
18823;DHT22;9540;51.550;7.980;2023-01-19T02:32:38;0.80;99.90
18823;DHT22;9540;51.550;7.980;2023-01-19T02:35:06;0.90;99.90
18823;DHT22;9540;51.550;7.980;2023-01-19T02:37:35;1.00;99.90
18823;DHT22;9540;51.550;7.980;2023-01-19T02:40:08;1.00;99.90
18823;DHT22;9540;51.550;7.980;2023-01-19T02:42:41;1.00;99.90
18823;DHT22;9540;51.550;7.980;2023-01-19T02:45:10;0.90;99.90
18823;DHT22;9540;51.550;7.980;2023-01-19T02:47:42;1.00;99.90
18823;DHT22;9540;51.550;7.980;2023-01-19T02:50:32;1.10;99.90
18823;DHT22;9540;51.550;7.980;2023-01-19T02:53:09;1.10;99.90
18823;DHT22;9540;51.550;7.980;2023-01-19T02:55:39;1.10;99.90
18823;DHT22;9540;51.550;7.980;2023-01-19T02:58:13;1.10;99.90
18823;DHT22;9540;51.550;7.980;2023-01-19T03:00:46;1.00;99.90
18823;DHT22;9540;51.550;7.980;2023-01-19T03:03:23;1.00;99.90
18823;DHT22;9540;51.550;7.980;2023-01-19T03:05:56;1.00;99.90
18823;DHT22;9540;51.550;7.980;2023-01-19T03:08:37;1.00;99.90
18823;DHT22;9540;51.550;7.980;2023-01-19T03:11:08;1.00;99.90
18823;DHT22;9540;51.550;7.980;2023-01-19T03:13:43;1.00;99.90
18823;DHT22;9540;51.550;7.980;2023-01-19T03:16:15;1.00;99.90
18823;DHT22;9540;51.550;7.980;2023-01-19T03:18:46;1.00;99.90
18823;DHT22;9540;51.550;7.980;2023-01-19T03:21:15;1.10;99.90
18823;DHT22;9540;51.550;7.980;2023-01-19T03:23:46;1.10;99.90
18823;DHT22;9540;51.550;7.980;2023-01-19T03:26:18;1.10;99.90
18823;DHT22;9540;51.550;7.980;2023-01-19T03:28:50;1.10;99.90
18823;DHT22;9540;51.550;7.980;2023-01-19T03:31:20;1.10;99.90
18823;DHT22;9540;51.550;7.980;2023-01-19T03:33:50;1.10;99.90
18823;DHT22;9540;51.550;7.980;2023-01-19T03:36:22;1.10;99.90
18823;DHT22;9540;51.550;7.980;2023-01-19T03:38:52;1.10;99.90
18823;DHT22;9540;51.550;7.980;2023-01-19T03:41:21;1.10;99.90
18823;DHT22;9540;51.550;7.980;2023-01-19T03:43:51;1.10;99.90
18823;DHT22;9540;51.550;7.980;2023-01-19T03:46:19;1.20;99.90
18823;DHT22;9540;51.550;7.980;2023-01-19T03:48:47;1.20;99.90
18823;DHT22;9540;51.550;7.980;2023-01-19T03:51:15;1.20;99.90
18823;DHT22;9540;51.550;7.980;2023-01-19T03:53:44;1.10;99.90
18823;DHT22;9540;51.550;7.980;2023-01-19T03:56:16;1.10;99.90
18823;DHT22;9540;51.550;7.980;2023-01-19T03:58:44;1.10;99.90
18823;DHT22;9540;51.550;7.980;2023-01-19T04:01:13;1.10;99.90
18823;DHT22;9540;51.550;7.980;2023-01-19T04:03:40;1.20;99.90
18823;DHT22;9540;51.550;7.980;2023-01-19T04:06:08;1.20;99.90
18823;DHT22;9540;51.550;7.980;2023-01-19T04:08:35;1.20;99.90
18823;DHT22;9540;51.550;7.980;2023-01-19T04:11:03;1.20;99.90
18823;DHT22;9540;51.550;7.980;2023-01-19T04:13:30;1.20;99.90
18823;DHT22;9540;51.550;7.980;2023-01-19T04:15:59;1.20;99.90
18823;DHT22;9540;51.550;7.980;2023-01-19T04:18:28;1.20;99.90
18823;DHT22;9540;51.550;7.980;2023-01-19T04:20:58;1.20;99.90
18823;DHT22;9540;51.550;7.980;2023-01-19T04:23:31;1.30;99.90
18823;DHT22;9540;51.550;7.980;2023-01-19T04:25:59;1.40;99.90
18823;DHT22;9540;51.550;7.980;2023-01-19T04:28:27;1.50;99.90
18823;DHT22;9540;51.550;7.980;2023-01-19T04:30:54;1.60;99.90
18823;DHT22;9540;51.550;7.980;2023-01-19T04:33:22;1.60;99.90
18823;DHT22;9540;51.550;7.980;2023-01-19T04:35:51;1.60;99.90
18823;DHT22;9540;51.550;7.980;2023-01-19T04:38:19;1.60;99.90
18823;DHT22;9540;51.550;7.980;2023-01-19T04:40:49;1.60;99.90
18823;DHT22;9540;51.550;7.980;2023-01-19T04:43:17;1.70;99.90
18823;DHT22;9540;51.550;7.980;2023-01-19T04:45:45;1.60;99.90
18823;DHT22;9540;51.550;7.980;2023-01-19T04:48:13;1.70;99.90
18823;DHT22;9540;51.550;7.980;2023-01-19T04:50:40;1.70;99.90
18823;DHT22;9540;51.550;7.980;2023-01-19T04:53:09;1.70;99.90
18823;DHT22;9540;51.550;7.980;2023-01-19T04:55:38;1.80;99.90
18823;DHT22;9540;51.550;7.980;2023-01-19T04:58:05;1.80;99.90
18823;DHT22;9540;51.550;7.980;2023-01-19T05:00:33;1.80;99.90
18823;DHT22;9540;51.550;7.980;2023-01-19T05:03:01;1.80;99.90
18823;DHT22;9540;51.550;7.980;2023-01-19T05:05:28;1.80;99.90
18823;DHT22;9540;51.550;7.980;2023-01-19T05:07:55;1.90;99.90
18823;DHT22;9540;51.550;7.980;2023-01-19T05:10:24;1.90;99.90
18823;DHT22;9540;51.550;7.980;2023-01-19T05:12:51;1.90;99.90
18823;DHT22;9540;51.550;7.980;2023-01-19T05:15:18;1.90;99.90
18823;DHT22;9540;51.550;7.980;2023-01-19T05:17:45;1.90;99.90
18823;DHT22;9540;51.550;7.980;2023-01-19T05:20:13;1.90;99.90
18823;DHT22;9540;51.550;7.980;2023-01-19T05:22:40;1.90;99.90
18823;DHT22;9540;51.550;7.980;2023-01-19T05:25:08;1.90;99.90
18823;DHT22;9540;51.550;7.980;2023-01-19T05:27:36;1.90;99.90
18823;DHT22;9540;51.550;7.980;2023-01-19T05:30:04;1.90;99.90
18823;DHT22;9540;51.550;7.980;2023-01-19T05:32:31;1.90;99.90
18823;DHT22;9540;51.550;7.980;2023-01-19T05:34:58;1.80;99.90
18823;DHT22;9540;51.550;7.980;2023-01-19T05:37:26;1.90;99.90
18823;DHT22;9540;51.550;7.980;2023-01-19T05:39:53;1.80;99.90
18823;DHT22;9540;51.550;7.980;2023-01-19T05:42:20;1.80;99.90
18823;DHT22;9540;51.550;7.980;2023-01-19T05:44:48;1.70;99.90
18823;DHT22;9540;51.550;7.980;2023-01-19T05:47:16;1.60;99.90
18823;DHT22;9540;51.550;7.980;2023-01-19T05:49:43;1.40;99.90
18823;DHT22;9540;51.550;7.980;2023-01-19T05:52:10;1.30;99.90
18823;DHT22;9540;51.550;7.980;2023-01-19T05:54:37;1.10;99.90
18823;DHT22;9540;51.550;7.980;2023-01-19T05:57:05;0.90;99.90
18823;DHT22;9540;51.550;7.980;2023-01-19T05:59:32;0.80;99.90
18823;DHT22;9540;51.550;7.980;2023-01-19T06:02:01;0.70;99.90
18823;DHT22;9540;51.550;7.980;2023-01-19T06:04:28;0.70;99.90
18823;DHT22;9540;51.550;7.980;2023-01-19T06:06:55;0.70;99.90
18823;DHT22;9540;51.550;7.980;2023-01-19T06:09:22;0.70;99.90
18823;DHT22;9540;51.550;7.980;2023-01-19T06:11:49;0.70;99.90
18823;DHT22;9540;51.550;7.980;2023-01-19T06:14:18;0.70;99.90
18823;DHT22;9540;51.550;7.980;2023-01-19T06:16:45;0.70;99.90
18823;DHT22;9540;51.550;7.980;2023-01-19T06:19:14;0.60;99.90
18823;DHT22;9540;51.550;7.980;2023-01-19T06:21:41;0.60;99.90
18823;DHT22;9540;51.550;7.980;2023-01-19T06:24:14;0.60;99.90
18823;DHT22;9540;51.550;7.980;2023-01-19T06:26:41;0.60;99.90
18823;DHT22;9540;51.550;7.980;2023-01-19T06:29:09;0.70;99.90
18823;DHT22;9540;51.550;7.980;2023-01-19T06:31:36;0.60;99.90
18823;DHT22;9540;51.550;7.980;2023-01-19T06:34:04;0.70;99.90
18823;DHT22;9540;51.550;7.980;2023-01-19T06:36:32;0.70;99.90
18823;DHT22;9540;51.550;7.980;2023-01-19T06:38:59;0.70;99.90
18823;DHT22;9540;51.550;7.980;2023-01-19T06:41:30;0.70;99.90
18823;DHT22;9540;51.550;7.980;2023-01-19T06:43:57;0.70;99.90
18823;DHT22;9540;51.550;7.980;2023-01-19T06:46:24;0.70;99.90
18823;DHT22;9540;51.550;7.980;2023-01-19T06:48:52;0.70;99.90
18823;DHT22;9540;51.550;7.980;2023-01-19T06:51:19;0.60;99.90
18823;DHT22;9540;51.550;7.980;2023-01-19T06:53:48;0.60;99.90
18823;DHT22;9540;51.550;7.980;2023-01-19T06:56:15;0.60;99.90
18823;DHT22;9540;51.550;7.980;2023-01-19T06:58:42;0.60;99.90
18823;DHT22;9540;51.550;7.980;2023-01-19T07:01:09;0.50;99.90
18823;DHT22;9540;51.550;7.980;2023-01-19T07:03:37;0.50;99.90
18823;DHT22;9540;51.550;7.980;2023-01-19T07:06:04;0.50;99.90
18823;DHT22;9540;51.550;7.980;2023-01-19T07:08:32;0.50;99.90
18823;DHT22;9540;51.550;7.980;2023-01-19T07:11:01;0.40;99.90
18823;DHT22;9540;51.550;7.980;2023-01-19T07:13:31;0.30;99.90
18823;DHT22;9540;51.550;7.980;2023-01-19T07:15:58;0.30;99.90
18823;DHT22;9540;51.550;7.980;2023-01-19T07:18:29;0.40;99.90
18823;DHT22;9540;51.550;7.980;2023-01-19T07:20:57;0.40;99.90
18823;DHT22;9540;51.550;7.980;2023-01-19T07:23:24;0.40;99.90
18823;DHT22;9540;51.550;7.980;2023-01-19T07:25:54;0.50;99.90
18823;DHT22;9540;51.550;7.980;2023-01-19T07:28:23;0.50;99.90
18823;DHT22;9540;51.550;7.980;2023-01-19T07:30:51;0.50;99.90
18823;DHT22;9540;51.550;7.980;2023-01-19T07:33:19;0.50;99.90
18823;DHT22;9540;51.550;7.980;2023-01-19T07:35:46;0.50;99.90
18823;DHT22;9540;51.550;7.980;2023-01-19T07:38:14;0.50;99.90
18823;DHT22;9540;51.550;7.980;2023-01-19T07:40:41;0.50;99.90
18823;DHT22;9540;51.550;7.980;2023-01-19T07:43:08;0.50;99.90
18823;DHT22;9540;51.550;7.980;2023-01-19T07:45:37;0.50;99.90
18823;DHT22;9540;51.550;7.980;2023-01-19T07:48:05;0.40;99.90
18823;DHT22;9540;51.550;7.980;2023-01-19T07:50:32;0.40;99.90
18823;DHT22;9540;51.550;7.980;2023-01-19T07:53:04;0.40;99.90
18823;DHT22;9540;51.550;7.980;2023-01-19T07:55:31;0.50;99.90
18823;DHT22;9540;51.550;7.980;2023-01-19T07:57:58;0.50;99.90
18823;DHT22;9540;51.550;7.980;2023-01-19T08:00:26;0.50;99.90
18823;DHT22;9540;51.550;7.980;2023-01-19T08:02:58;0.60;99.90
18823;DHT22;9540;51.550;7.980;2023-01-19T08:05:26;0.60;99.90
18823;DHT22;9540;51.550;7.980;2023-01-19T08:07:54;0.60;99.90
18823;DHT22;9540;51.550;7.980;2023-01-19T08:10:22;0.60;99.90
18823;DHT22;9540;51.550;7.980;2023-01-19T08:12:51;0.60;99.90
18823;DHT22;9540;51.550;7.980;2023-01-19T08:15:20;0.60;99.90
18823;DHT22;9540;51.550;7.980;2023-01-19T08:17:55;0.70;99.90
18823;DHT22;9540;51.550;7.980;2023-01-19T08:20:23;0.70;99.90
18823;DHT22;9540;51.550;7.980;2023-01-19T08:22:50;0.70;99.90
18823;DHT22;9540;51.550;7.980;2023-01-19T08:25:24;0.70;99.90
18823;DHT22;9540;51.550;7.980;2023-01-19T08:27:54;0.70;99.90
18823;DHT22;9540;51.550;7.980;2023-01-19T08:30:21;0.70;99.90
18823;DHT22;9540;51.550;7.980;2023-01-19T08:32:51;0.70;99.90
18823;DHT22;9540;51.550;7.980;2023-01-19T08:35:20;0.70;99.90
18823;DHT22;9540;51.550;7.980;2023-01-19T08:37:47;0.70;99.90
18823;DHT22;9540;51.550;7.980;2023-01-19T08:40:14;0.80;99.90
18823;DHT22;9540;51.550;7.980;2023-01-19T08:42:42;0.70;99.90
18823;DHT22;9540;51.550;7.980;2023-01-19T08:45:10;0.80;99.90
18823;DHT22;9540;51.550;7.980;2023-01-19T08:47:37;0.70;99.90
18823;DHT22;9540;51.550;7.980;2023-01-19T08:50:05;0.70;99.90
18823;DHT22;9540;51.550;7.980;2023-01-19T08:52:33;0.60;99.90
18823;DHT22;9540;51.550;7.980;2023-01-19T08:55:01;0.60;99.90
18823;DHT22;9540;51.550;7.980;2023-01-19T08:57:28;0.60;99.90
18823;DHT22;9540;51.550;7.980;2023-01-19T08:59:55;0.60;99.90
18823;DHT22;9540;51.550;7.980;2023-01-19T09:02:22;0.70;99.90
18823;DHT22;9540;51.550;7.980;2023-01-19T09:04:49;0.70;99.90
18823;DHT22;9540;51.550;7.980;2023-01-19T09:07:17;0.70;99.90
18823;DHT22;9540;51.550;7.980;2023-01-19T09:09:46;0.80;99.90
18823;DHT22;9540;51.550;7.980;2023-01-19T09:12:13;0.80;99.90
18823;DHT22;9540;51.550;7.980;2023-01-19T09:14:41;0.90;99.90
18823;DHT22;9540;51.550;7.980;2023-01-19T09:17:08;0.90;99.90
18823;DHT22;9540;51.550;7.980;2023-01-19T09:19:35;1.00;99.90
18823;DHT22;9540;51.550;7.980;2023-01-19T09:22:02;1.10;99.90
18823;DHT22;9540;51.550;7.980;2023-01-19T09:24:30;1.10;99.90
18823;DHT22;9540;51.550;7.980;2023-01-19T09:27:01;1.10;99.90
18823;DHT22;9540;51.550;7.980;2023-01-19T09:29:28;1.10;99.90
18823;DHT22;9540;51.550;7.980;2023-01-19T09:31:55;1.10;99.90
18823;DHT22;9540;51.550;7.980;2023-01-19T09:34:23;1.10;99.90
18823;DHT22;9540;51.550;7.980;2023-01-19T09:36:51;1.00;99.90
18823;DHT22;9540;51.550;7.980;2023-01-19T09:39:18;1.00;99.90
18823;DHT22;9540;51.550;7.980;2023-01-19T09:41:48;1.00;99.90
18823;DHT22;9540;51.550;7.980;2023-01-19T09:44:27;1.00;99.90
18823;DHT22;9540;51.550;7.980;2023-01-19T09:46:55;1.00;99.90
18823;DHT22;9540;51.550;7.980;2023-01-19T09:49:27;0.90;99.90
18823;DHT22;9540;51.550;7.980;2023-01-19T09:51:57;0.80;99.90
18823;DHT22;9540;51.550;7.980;2023-01-19T09:54:28;0.80;99.90
18823;DHT22;9540;51.550;7.980;2023-01-19T09:56:58;0.80;99.90
18823;DHT22;9540;51.550;7.980;2023-01-19T09:59:28;0.80;99.90
18823;DHT22;9540;51.550;7.980;2023-01-19T10:02:20;0.80;99.90
18823;DHT22;9540;51.550;7.980;2023-01-19T10:04:57;0.80;99.90
18823;DHT22;9540;51.550;7.980;2023-01-19T10:07:32;0.90;99.90
18823;DHT22;9540;51.550;7.980;2023-01-19T10:10:11;0.90;99.90
18823;DHT22;9540;51.550;7.980;2023-01-19T10:12:47;1.00;99.90
18823;DHT22;9540;51.550;7.980;2023-01-19T10:15:24;1.10;99.90
18823;DHT22;9540;51.550;7.980;2023-01-19T10:18:02;1.20;99.90
18823;DHT22;9540;51.550;7.980;2023-01-19T10:20:34;1.20;99.90
18823;DHT22;9540;51.550;7.980;2023-01-19T10:23:05;1.30;99.90
18823;DHT22;9540;51.550;7.980;2023-01-19T10:25:41;1.30;99.90
18823;DHT22;9540;51.550;7.980;2023-01-19T10:28:09;1.40;99.90
18823;DHT22;9540;51.550;7.980;2023-01-19T10:30:41;1.40;99.90
18823;DHT22;9540;51.550;7.980;2023-01-19T10:33:11;1.40;99.90
18823;DHT22;9540;51.550;7.980;2023-01-19T10:35:40;1.40;99.90
18823;DHT22;9540;51.550;7.980;2023-01-19T10:38:11;1.40;99.90
18823;DHT22;9540;51.550;7.980;2023-01-19T10:40:47;1.50;99.90
18823;DHT22;9540;51.550;7.980;2023-01-19T10:43:42;1.60;99.90
18823;DHT22;9540;51.550;7.980;2023-01-19T10:46:28;1.60;99.90
18823;DHT22;9540;51.550;7.980;2023-01-19T10:48:58;1.70;99.90
18823;DHT22;9540;51.550;7.980;2023-01-19T10:51:25;1.70;99.90
18823;DHT22;9540;51.550;7.980;2023-01-19T10:53:58;1.80;99.90
18823;DHT22;9540;51.550;7.980;2023-01-19T10:56:29;1.80;99.90
18823;DHT22;9540;51.550;7.980;2023-01-19T10:58:59;2.00;99.90
18823;DHT22;9540;51.550;7.980;2023-01-19T11:01:29;2.10;99.90
18823;DHT22;9540;51.550;7.980;2023-01-19T11:04:18;2.10;99.90
18823;DHT22;9540;51.550;7.980;2023-01-19T11:06:46;2.30;99.90
18823;DHT22;9540;51.550;7.980;2023-01-19T11:09:18;2.30;99.90
18823;DHT22;9540;51.550;7.980;2023-01-19T11:11:47;2.40;99.90
18823;DHT22;9540;51.550;7.980;2023-01-19T11:14:18;2.40;99.90
18823;DHT22;9540;51.550;7.980;2023-01-19T11:16:52;2.60;99.90
18823;DHT22;9540;51.550;7.980;2023-01-19T11:19:25;2.70;99.90
18823;DHT22;9540;51.550;7.980;2023-01-19T11:22:08;2.70;99.90
18823;DHT22;9540;51.550;7.980;2023-01-19T11:24:37;2.60;99.90
18823;DHT22;9540;51.550;7.980;2023-01-19T11:27:05;2.40;99.90
18823;DHT22;9540;51.550;7.980;2023-01-19T11:29:33;2.30;99.90
18823;DHT22;9540;51.550;7.980;2023-01-19T11:32:11;2.20;99.90
18823;DHT22;9540;51.550;7.980;2023-01-19T11:34:44;2.10;99.90
18823;DHT22;9540;51.550;7.980;2023-01-19T11:37:26;2.00;99.90
18823;DHT22;9540;51.550;7.980;2023-01-19T11:39:56;1.90;99.90
18823;DHT22;9540;51.550;7.980;2023-01-19T11:42:24;1.90;99.90
18823;DHT22;9540;51.550;7.980;2023-01-19T11:44:58;2.00;99.90
18823;DHT22;9540;51.550;7.980;2023-01-19T11:47:33;2.00;99.90
18823;DHT22;9540;51.550;7.980;2023-01-19T11:50:05;2.10;99.90
18823;DHT22;9540;51.550;7.980;2023-01-19T11:52:40;2.10;99.90
18823;DHT22;9540;51.550;7.980;2023-01-19T11:55:16;2.10;99.90
18823;DHT22;9540;51.550;7.980;2023-01-19T11:57:47;2.10;99.90
18823;DHT22;9540;51.550;7.980;2023-01-19T12:00:24;2.00;99.90
18823;DHT22;9540;51.550;7.980;2023-01-19T12:02:58;1.90;99.90
18823;DHT22;9540;51.550;7.980;2023-01-19T12:05:31;1.90;99.90
18823;DHT22;9540;51.550;7.980;2023-01-19T12:08:03;2.00;99.90
18823;DHT22;9540;51.550;7.980;2023-01-19T12:10:37;2.00;99.90
18823;DHT22;9540;51.550;7.980;2023-01-19T12:13:09;2.00;99.90
18823;DHT22;9540;51.550;7.980;2023-01-19T12:15:40;2.10;99.90
18823;DHT22;9540;51.550;7.980;2023-01-19T12:18:18;2.00;99.90
18823;DHT22;9540;51.550;7.980;2023-01-19T12:20:49;2.00;99.90
18823;DHT22;9540;51.550;7.980;2023-01-19T12:23:26;2.10;99.90
18823;DHT22;9540;51.550;7.980;2023-01-19T12:26:07;2.10;99.90
18823;DHT22;9540;51.550;7.980;2023-01-19T12:28:43;2.00;99.90
18823;DHT22;9540;51.550;7.980;2023-01-19T12:31:13;2.10;99.90
18823;DHT22;9540;51.550;7.980;2023-01-19T12:33:43;2.10;99.90
18823;DHT22;9540;51.550;7.980;2023-01-19T12:36:33;2.20;99.90
18823;DHT22;9540;51.550;7.980;2023-01-19T12:39:02;2.20;99.90
18823;DHT22;9540;51.550;7.980;2023-01-19T12:41:31;2.20;99.90
18823;DHT22;9540;51.550;7.980;2023-01-19T12:44:24;2.20;99.90
18823;DHT22;9540;51.550;7.980;2023-01-19T12:46:55;2.30;99.90
18823;DHT22;9540;51.550;7.980;2023-01-19T12:49:32;2.30;99.90
18823;DHT22;9540;51.550;7.980;2023-01-19T12:52:19;2.20;99.90
18823;DHT22;9540;51.550;7.980;2023-01-19T12:54:55;2.20;99.90
18823;DHT22;9540;51.550;7.980;2023-01-19T12:57:26;2.30;99.90
18823;DHT22;9540;51.550;7.980;2023-01-19T12:59:56;2.30;99.90
18823;DHT22;9540;51.550;7.980;2023-01-19T13:02:40;2.30;99.90
18823;DHT22;9540;51.550;7.980;2023-01-19T13:05:35;2.20;99.90
18823;DHT22;9540;51.550;7.980;2023-01-19T13:08:55;2.20;99.90
18823;DHT22;9540;51.550;7.980;2023-01-19T13:11:22;2.30;99.90
18823;DHT22;9540;51.550;7.980;2023-01-19T13:20:22;2.30;99.90
18823;DHT22;9540;51.550;7.980;2023-01-19T13:23:19;2.30;99.90
18823;DHT22;9540;51.550;7.980;2023-01-19T13:25:52;2.30;99.90
18823;DHT22;9540;51.550;7.980;2023-01-19T13:28:29;2.30;99.90
18823;DHT22;9540;51.550;7.980;2023-01-19T13:30:58;2.30;99.90
18823;DHT22;9540;51.550;7.980;2023-01-19T13:33:32;2.30;99.90
18823;DHT22;9540;51.550;7.980;2023-01-19T13:36:01;2.30;99.90
18823;DHT22;9540;51.550;7.980;2023-01-19T13:38:30;2.20;99.90
18823;DHT22;9540;51.550;7.980;2023-01-19T13:40:59;2.10;99.90
18823;DHT22;9540;51.550;7.980;2023-01-19T13:43:35;2.10;99.90
18823;DHT22;9540;51.550;7.980;2023-01-19T13:46:03;2.10;99.90
18823;DHT22;9540;51.550;7.980;2023-01-19T13:48:30;2.10;99.90
18823;DHT22;9540;51.550;7.980;2023-01-19T13:51:03;2.10;99.90
18823;DHT22;9540;51.550;7.980;2023-01-19T13:53:37;2.10;99.90
18823;DHT22;9540;51.550;7.980;2023-01-19T13:56:06;2.10;99.90
18823;DHT22;9540;51.550;7.980;2023-01-19T13:58:34;2.10;99.90
18823;DHT22;9540;51.550;7.980;2023-01-19T14:01:01;2.20;99.90
18823;DHT22;9540;51.550;7.980;2023-01-19T14:03:29;2.20;99.90
18823;DHT22;9540;51.550;7.980;2023-01-19T14:05:57;2.30;99.90
18823;DHT22;9540;51.550;7.980;2023-01-19T14:08:24;2.30;99.90
18823;DHT22;9540;51.550;7.980;2023-01-19T14:11:01;2.30;99.90
18823;DHT22;9540;51.550;7.980;2023-01-19T14:13:31;2.30;99.90
18823;DHT22;9540;51.550;7.980;2023-01-19T14:16:06;2.40;99.90
18823;DHT22;9540;51.550;7.980;2023-01-19T14:18:34;2.50;99.90
18823;DHT22;9540;51.550;7.980;2023-01-19T14:21:03;2.50;99.90
18823;DHT22;9540;51.550;7.980;2023-01-19T14:23:48;2.40;99.90
18823;DHT22;9540;51.550;7.980;2023-01-19T14:26:46;2.50;99.90
18823;DHT22;9540;51.550;7.980;2023-01-19T14:29:24;2.50;99.90
18823;DHT22;9540;51.550;7.980;2023-01-19T14:32:03;2.40;99.90
18823;DHT22;9540;51.550;7.980;2023-01-19T14:34:36;2.40;99.90
18823;DHT22;9540;51.550;7.980;2023-01-19T14:37:12;2.30;99.90
18823;DHT22;9540;51.550;7.980;2023-01-19T14:39:43;2.20;99.90
18823;DHT22;9540;51.550;7.980;2023-01-19T14:42:18;2.20;99.90
18823;DHT22;9540;51.550;7.980;2023-01-19T14:44:48;2.10;99.90
18823;DHT22;9540;51.550;7.980;2023-01-19T14:47:25;2.00;99.90
18823;DHT22;9540;51.550;7.980;2023-01-19T14:49:54;1.80;99.90
18823;DHT22;9540;51.550;7.980;2023-01-19T14:52:25;1.80;99.90
18823;DHT22;9540;51.550;7.980;2023-01-19T14:54:53;1.80;99.90
18823;DHT22;9540;51.550;7.980;2023-01-19T14:57:22;1.90;99.90
18823;DHT22;9540;51.550;7.980;2023-01-19T14:59:49;1.90;99.90
18823;DHT22;9540;51.550;7.980;2023-01-19T15:02:17;1.90;99.90
18823;DHT22;9540;51.550;7.980;2023-01-19T15:04:44;1.90;99.90
18823;DHT22;9540;51.550;7.980;2023-01-19T15:07:16;1.80;99.90
18823;DHT22;9540;51.550;7.980;2023-01-19T15:09:45;1.90;99.90
18823;DHT22;9540;51.550;7.980;2023-01-19T15:12:14;1.90;99.90
18823;DHT22;9540;51.550;7.980;2023-01-19T15:14:43;1.90;99.90
18823;DHT22;9540;51.550;7.980;2023-01-19T15:17:15;1.80;99.90
18823;DHT22;9540;51.550;7.980;2023-01-19T15:19:50;1.90;99.90
18823;DHT22;9540;51.550;7.980;2023-01-19T15:22:17;1.90;99.90
18823;DHT22;9540;51.550;7.980;2023-01-19T15:24:47;1.90;99.90
18823;DHT22;9540;51.550;7.980;2023-01-19T15:27:14;1.80;99.90
18823;DHT22;9540;51.550;7.980;2023-01-19T15:29:43;1.70;99.90
18823;DHT22;9540;51.550;7.980;2023-01-19T15:32:11;1.70;99.90
18823;DHT22;9540;51.550;7.980;2023-01-19T15:34:39;1.80;99.90
18823;DHT22;9540;51.550;7.980;2023-01-19T15:37:06;1.80;99.90
18823;DHT22;9540;51.550;7.980;2023-01-19T15:39:33;1.80;99.90
18823;DHT22;9540;51.550;7.980;2023-01-19T15:42:00;1.80;99.90
18823;DHT22;9540;51.550;7.980;2023-01-19T15:44:28;1.80;99.90
18823;DHT22;9540;51.550;7.980;2023-01-19T15:46:57;1.70;99.90
18823;DHT22;9540;51.550;7.980;2023-01-19T15:49:24;1.70;99.90
18823;DHT22;9540;51.550;7.980;2023-01-19T15:51:52;1.60;99.90
18823;DHT22;9540;51.550;7.980;2023-01-19T15:54:19;1.50;99.90
18823;DHT22;9540;51.550;7.980;2023-01-19T15:56:46;1.40;99.90
18823;DHT22;9540;51.550;7.980;2023-01-19T15:59:13;1.30;99.90
18823;DHT22;9540;51.550;7.980;2023-01-19T16:01:40;1.20;99.90
18823;DHT22;9540;51.550;7.980;2023-01-19T16:04:10;1.10;99.90
18823;DHT22;9540;51.550;7.980;2023-01-19T16:06:37;0.90;99.90
18823;DHT22;9540;51.550;7.980;2023-01-19T16:09:05;0.90;99.90
18823;DHT22;9540;51.550;7.980;2023-01-19T16:11:33;0.80;99.90
18823;DHT22;9540;51.550;7.980;2023-01-19T16:14:02;0.70;99.90
18823;DHT22;9540;51.550;7.980;2023-01-19T16:16:29;0.70;99.90
18823;DHT22;9540;51.550;7.980;2023-01-19T16:18:56;0.60;99.90
18823;DHT22;9540;51.550;7.980;2023-01-19T16:21:25;0.60;99.90
18823;DHT22;9540;51.550;7.980;2023-01-19T16:23:53;0.60;99.90
18823;DHT22;9540;51.550;7.980;2023-01-19T16:26:26;0.60;99.90
18823;DHT22;9540;51.550;7.980;2023-01-19T16:28:55;0.70;99.90